sensor_id;sensor_type;location;lat;lon;timestamp;P1;durP1;ratioP1;P2;durP2;ratioP2
29358;SDS011;16347;53.232;6.556;2023-06-14T00:00:01;13.93;;;5.72;;
29358;SDS011;16347;53.232;6.556;2023-06-14T00:02:30;16.08;;;4.18;;
29358;SDS011;16347;53.232;6.556;2023-06-14T00:04:58;9.60;;;2.90;;
29358;SDS011;16347;53.232;6.556;2023-06-14T00:07:34;6.95;;;3.53;;
29358;SDS011;16347;53.232;6.556;2023-06-14T00:10:06;8.70;;;3.33;;
29358;SDS011;16347;53.232;6.556;2023-06-14T00:12:35;8.63;;;2.83;;
29358;SDS011;16347;53.232;6.556;2023-06-14T00:15:03;5.97;;;2.63;;
29358;SDS011;16347;53.232;6.556;2023-06-14T00:17:33;4.78;;;2.15;;
29358;SDS011;16347;53.232;6.556;2023-06-14T00:20:03;8.20;;;2.05;;
29358;SDS011;16347;53.232;6.556;2023-06-14T00:22:35;5.18;;;1.75;;
29358;SDS011;16347;53.232;6.556;2023-06-14T00:25:05;3.25;;;1.85;;
29358;SDS011;16347;53.232;6.556;2023-06-14T00:27:54;4.53;;;2.00;;
29358;SDS011;16347;53.232;6.556;2023-06-14T00:30:23;3.67;;;1.75;;
29358;SDS011;16347;53.232;6.556;2023-06-14T00:32:57;4.32;;;1.55;;
29358;SDS011;16347;53.232;6.556;2023-06-14T00:35:26;2.65;;;1.40;;
29358;SDS011;16347;53.232;6.556;2023-06-14T00:37:57;3.33;;;1.80;;
29358;SDS011;16347;53.232;6.556;2023-06-14T00:40:28;5.13;;;2.23;;
29358;SDS011;16347;53.232;6.556;2023-06-14T00:42:57;6.93;;;2.03;;
29358;SDS011;16347;53.232;6.556;2023-06-14T00:45:25;9.05;;;2.05;;
29358;SDS011;16347;53.232;6.556;2023-06-14T00:47:53;3.42;;;1.90;;
29358;SDS011;16347;53.232;6.556;2023-06-14T00:50:22;5.28;;;1.88;;
29358;SDS011;16347;53.232;6.556;2023-06-14T00:52:51;4.13;;;1.73;;
29358;SDS011;16347;53.232;6.556;2023-06-14T00:55:21;8.65;;;1.90;;
29358;SDS011;16347;53.232;6.556;2023-06-14T00:57:49;3.47;;;1.40;;
29358;SDS011;16347;53.232;6.556;2023-06-14T01:00:18;1.80;;;1.40;;
29358;SDS011;16347;53.232;6.556;2023-06-14T01:02:48;4.75;;;2.13;;
29358;SDS011;16347;53.232;6.556;2023-06-14T01:05:17;4.88;;;1.70;;
29358;SDS011;16347;53.232;6.556;2023-06-14T01:07:51;5.00;;;1.80;;
29358;SDS011;16347;53.232;6.556;2023-06-14T01:10:34;2.05;;;1.38;;
29358;SDS011;16347;53.232;6.556;2023-06-14T01:13:11;6.25;;;1.85;;
29358;SDS011;16347;53.232;6.556;2023-06-14T01:15:43;3.90;;;1.45;;
29358;SDS011;16347;53.232;6.556;2023-06-14T01:18:12;4.65;;;1.77;;
29358;SDS011;16347;53.232;6.556;2023-06-14T01:20:44;7.68;;;1.80;;
29358;SDS011;16347;53.232;6.556;2023-06-14T01:23:17;5.43;;;1.15;;
29358;SDS011;16347;53.232;6.556;2023-06-14T01:25:46;6.78;;;1.83;;
29358;SDS011;16347;53.232;6.556;2023-06-14T01:28:19;5.05;;;1.45;;
29358;SDS011;16347;53.232;6.556;2023-06-14T01:30:48;2.42;;;1.42;;
29358;SDS011;16347;53.232;6.556;2023-06-14T01:33:22;2.08;;;1.42;;
29358;SDS011;16347;53.232;6.556;2023-06-14T01:35:57;5.40;;;1.40;;
29358;SDS011;16347;53.232;6.556;2023-06-14T01:38:30;5.75;;;1.50;;
29358;SDS011;16347;53.232;6.556;2023-06-14T01:40:59;2.92;;;1.45;;
29358;SDS011;16347;53.232;6.556;2023-06-14T01:43:28;2.40;;;1.33;;
29358;SDS011;16347;53.232;6.556;2023-06-14T01:45:58;6.05;;;1.40;;
29358;SDS011;16347;53.232;6.556;2023-06-14T01:48:29;4.60;;;1.73;;
29358;SDS011;16347;53.232;6.556;2023-06-14T01:50:58;4.07;;;1.70;;
29358;SDS011;16347;53.232;6.556;2023-06-14T01:53:27;3.88;;;1.58;;
29358;SDS011;16347;53.232;6.556;2023-06-14T01:55:57;4.72;;;1.85;;
29358;SDS011;16347;53.232;6.556;2023-06-14T01:58:25;5.40;;;1.88;;
29358;SDS011;16347;53.232;6.556;2023-06-14T02:00:53;2.88;;;1.38;;
29358;SDS011;16347;53.232;6.556;2023-06-14T02:03:23;3.90;;;1.60;;
29358;SDS011;16347;53.232;6.556;2023-06-14T02:05:51;3.17;;;1.40;;
29358;SDS011;16347;53.232;6.556;2023-06-14T02:08:20;2.33;;;1.30;;
29358;SDS011;16347;53.232;6.556;2023-06-14T02:10:48;3.85;;;1.50;;
29358;SDS011;16347;53.232;6.556;2023-06-14T02:13:18;3.22;;;1.40;;
29358;SDS011;16347;53.232;6.556;2023-06-14T02:15:47;3.40;;;1.48;;
29358;SDS011;16347;53.232;6.556;2023-06-14T02:18:20;4.18;;;1.63;;
29358;SDS011;16347;53.232;6.556;2023-06-14T02:20:49;3.50;;;1.90;;
29358;SDS011;16347;53.232;6.556;2023-06-14T02:23:17;3.20;;;1.63;;
29358;SDS011;16347;53.232;6.556;2023-06-14T02:25:45;4.15;;;1.67;;
29358;SDS011;16347;53.232;6.556;2023-06-14T02:28:13;4.05;;;1.60;;
29358;SDS011;16347;53.232;6.556;2023-06-14T02:30:42;4.35;;;1.77;;
29358;SDS011;16347;53.232;6.556;2023-06-14T02:33:10;3.55;;;1.88;;
29358;SDS011;16347;53.232;6.556;2023-06-14T02:35:41;2.85;;;1.42;;
29358;SDS011;16347;53.232;6.556;2023-06-14T02:38:09;4.90;;;1.80;;
29358;SDS011;16347;53.232;6.556;2023-06-14T02:40:38;6.55;;;1.90;;
29358;SDS011;16347;53.232;6.556;2023-06-14T02:43:08;6.65;;;1.85;;
29358;SDS011;16347;53.232;6.556;2023-06-14T02:45:38;4.72;;;1.67;;
29358;SDS011;16347;53.232;6.556;2023-06-14T02:48:08;3.65;;;2.03;;
29358;SDS011;16347;53.232;6.556;2023-06-14T02:50:36;7.60;;;1.75;;
29358;SDS011;16347;53.232;6.556;2023-06-14T02:53:04;5.72;;;1.80;;
29358;SDS011;16347;53.232;6.556;2023-06-14T02:55:33;4.00;;;2.05;;
29358;SDS011;16347;53.232;6.556;2023-06-14T02:58:06;4.82;;;1.90;;
29358;SDS011;16347;53.232;6.556;2023-06-14T03:00:34;2.42;;;1.67;;
29358;SDS011;16347;53.232;6.556;2023-06-14T03:03:03;4.43;;;2.40;;
29358;SDS011;16347;53.232;6.556;2023-06-14T03:05:43;6.45;;;1.73;;
29358;SDS011;16347;53.232;6.556;2023-06-14T03:08:16;3.20;;;1.80;;
29358;SDS011;16347;53.232;6.556;2023-06-14T03:10:48;4.10;;;1.90;;
29358;SDS011;16347;53.232;6.556;2023-06-14T03:13:17;4.95;;;2.15;;
29358;SDS011;16347;53.232;6.556;2023-06-14T03:15:48;6.20;;;2.15;;
29358;SDS011;16347;53.232;6.556;2023-06-14T03:18:17;5.20;;;1.77;;
29358;SDS011;16347;53.232;6.556;2023-06-14T03:20:47;5.43;;;2.25;;
29358;SDS011;16347;53.232;6.556;2023-06-14T03:23:15;3.28;;;2.22;;
29358;SDS011;16347;53.232;6.556;2023-06-14T03:25:44;5.50;;;1.60;;
29358;SDS011;16347;53.232;6.556;2023-06-14T03:28:12;5.78;;;1.90;;
29358;SDS011;16347;53.232;6.556;2023-06-14T03:30:40;2.80;;;1.67;;
29358;SDS011;16347;53.232;6.556;2023-06-14T03:33:10;7.78;;;2.45;;
29358;SDS011;16347;53.232;6.556;2023-06-14T03:35:39;3.05;;;2.00;;
29358;SDS011;16347;53.232;6.556;2023-06-14T03:38:09;4.55;;;2.20;;
29358;SDS011;16347;53.232;6.556;2023-06-14T03:40:38;3.45;;;1.88;;
29358;SDS011;16347;53.232;6.556;2023-06-14T03:43:07;8.95;;;2.40;;
29358;SDS011;16347;53.232;6.556;2023-06-14T03:45:35;11.70;;;2.38;;
29358;SDS011;16347;53.232;6.556;2023-06-14T03:48:04;6.25;;;2.30;;
29358;SDS011;16347;53.232;6.556;2023-06-14T03:50:35;4.65;;;2.50;;
29358;SDS011;16347;53.232;6.556;2023-06-14T03:53:06;5.55;;;2.42;;
29358;SDS011;16347;53.232;6.556;2023-06-14T03:55:39;3.30;;;2.13;;
29358;SDS011;16347;53.232;6.556;2023-06-14T03:58:10;6.40;;;2.22;;
29358;SDS011;16347;53.232;6.556;2023-06-14T04:00:39;7.45;;;2.65;;
29358;SDS011;16347;53.232;6.556;2023-06-14T04:03:07;2.90;;;2.10;;
29358;SDS011;16347;53.232;6.556;2023-06-14T04:05:36;4.00;;;2.60;;
29358;SDS011;16347;53.232;6.556;2023-06-14T04:08:07;9.10;;;2.10;;
29358;SDS011;16347;53.232;6.556;2023-06-14T04:10:36;4.13;;;2.10;;
29358;SDS011;16347;53.232;6.556;2023-06-14T04:13:06;4.90;;;2.38;;
29358;SDS011;16347;53.232;6.556;2023-06-14T04:15:34;6.60;;;2.42;;
29358;SDS011;16347;53.232;6.556;2023-06-14T04:18:03;11.32;;;2.83;;
29358;SDS011;16347;53.232;6.556;2023-06-14T04:20:32;4.38;;;2.38;;
29358;SDS011;16347;53.232;6.556;2023-06-14T04:23:11;5.90;;;2.60;;
29358;SDS011;16347;53.232;6.556;2023-06-14T04:25:40;6.13;;;2.10;;
29358;SDS011;16347;53.232;6.556;2023-06-14T04:28:13;8.45;;;2.47;;
29358;SDS011;16347;53.232;6.556;2023-06-14T04:30:43;4.95;;;2.50;;
29358;SDS011;16347;53.232;6.556;2023-06-14T04:33:12;7.72;;;2.40;;
29358;SDS011;16347;53.232;6.556;2023-06-14T04:35:41;3.95;;;2.17;;
29358;SDS011;16347;53.232;6.556;2023-06-14T04:38:16;6.43;;;2.65;;
29358;SDS011;16347;53.232;6.556;2023-06-14T04:40:45;3.50;;;2.33;;
29358;SDS011;16347;53.232;6.556;2023-06-14T04:43:18;4.75;;;2.42;;
29358;SDS011;16347;53.232;6.556;2023-06-14T04:45:56;5.22;;;2.05;;
29358;SDS011;16347;53.232;6.556;2023-06-14T04:48:25;5.50;;;2.20;;
29358;SDS011;16347;53.232;6.556;2023-06-14T04:50:54;6.72;;;2.78;;
29358;SDS011;16347;53.232;6.556;2023-06-14T04:53:23;6.97;;;2.38;;
29358;SDS011;16347;53.232;6.556;2023-06-14T04:55:55;5.32;;;2.28;;
29358;SDS011;16347;53.232;6.556;2023-06-14T04:58:25;7.82;;;3.28;;
29358;SDS011;16347;53.232;6.556;2023-06-14T05:00:54;6.68;;;2.17;;
29358;SDS011;16347;53.232;6.556;2023-06-14T05:03:23;8.70;;;2.50;;
29358;SDS011;16347;53.232;6.556;2023-06-14T05:05:51;6.45;;;2.30;;
29358;SDS011;16347;53.232;6.556;2023-06-14T05:08:20;9.68;;;2.78;;
29358;SDS011;16347;53.232;6.556;2023-06-14T05:10:50;10.57;;;2.60;;
29358;SDS011;16347;53.232;6.556;2023-06-14T05:13:18;18.65;;;3.10;;
29358;SDS011;16347;53.232;6.556;2023-06-14T05:15:49;8.23;;;2.97;;
29358;SDS011;16347;53.232;6.556;2023-06-14T05:18:18;9.35;;;2.92;;
29358;SDS011;16347;53.232;6.556;2023-06-14T05:20:46;7.30;;;3.10;;
29358;SDS011;16347;53.232;6.556;2023-06-14T05:23:14;9.57;;;2.90;;
29358;SDS011;16347;53.232;6.556;2023-06-14T05:25:42;10.82;;;3.70;;
29358;SDS011;16347;53.232;6.556;2023-06-14T05:28:11;12.77;;;3.08;;
29358;SDS011;16347;53.232;6.556;2023-06-14T05:30:39;16.83;;;3.63;;
29358;SDS011;16347;53.232;6.556;2023-06-14T05:33:09;7.13;;;3.42;;
29358;SDS011;16347;53.232;6.556;2023-06-14T05:35:37;8.95;;;3.03;;
29358;SDS011;16347;53.232;6.556;2023-06-14T05:38:05;13.05;;;4.43;;
29358;SDS011;16347;53.232;6.556;2023-06-14T05:40:34;12.77;;;5.55;;
29358;SDS011;16347;53.232;6.556;2023-06-14T05:43:02;11.35;;;4.47;;
29358;SDS011;16347;53.232;6.556;2023-06-14T05:45:30;16.05;;;5.55;;
29358;SDS011;16347;53.232;6.556;2023-06-14T05:47:59;11.80;;;4.40;;
29358;SDS011;16347;53.232;6.556;2023-06-14T05:50:28;21.20;;;11.77;;
29358;SDS011;16347;53.232;6.556;2023-06-14T05:52:56;28.65;;;14.80;;
29358;SDS011;16347;53.232;6.556;2023-06-14T05:55:25;34.15;;;18.45;;
29358;SDS011;16347;53.232;6.556;2023-06-14T05:57:53;44.30;;;23.90;;
29358;SDS011;16347;53.232;6.556;2023-06-14T06:00:21;63.17;;;32.20;;
29358;SDS011;16347;53.232;6.556;2023-06-14T06:02:49;61.53;;;32.13;;
29358;SDS011;16347;53.232;6.556;2023-06-14T06:05:17;60.90;;;30.02;;
29358;SDS011;16347;53.232;6.556;2023-06-14T06:07:47;57.15;;;29.92;;
29358;SDS011;16347;53.232;6.556;2023-06-14T06:10:15;57.45;;;32.47;;
29358;SDS011;16347;53.232;6.556;2023-06-14T06:12:43;71.82;;;36.97;;
29358;SDS011;16347;53.232;6.556;2023-06-14T06:15:13;78.40;;;39.63;;
29358;SDS011;16347;53.232;6.556;2023-06-14T06:17:43;75.25;;;40.00;;
29358;SDS011;16347;53.232;6.556;2023-06-14T06:20:22;70.72;;;38.13;;
29358;SDS011;16347;53.232;6.556;2023-06-14T06:22:57;79.80;;;42.85;;
29358;SDS011;16347;53.232;6.556;2023-06-14T06:25:26;92.65;;;50.15;;
29358;SDS011;16347;53.232;6.556;2023-06-14T06:27:54;119.28;;;64.55;;
29358;SDS011;16347;53.232;6.556;2023-06-14T06:30:24;142.07;;;78.55;;
29358;SDS011;16347;53.232;6.556;2023-06-14T06:32:53;147.18;;;83.55;;
29358;SDS011;16347;53.232;6.556;2023-06-14T06:35:22;153.55;;;86.45;;
29358;SDS011;16347;53.232;6.556;2023-06-14T06:37:50;157.02;;;88.47;;
29358;SDS011;16347;53.232;6.556;2023-06-14T06:40:19;156.27;;;88.10;;
29358;SDS011;16347;53.232;6.556;2023-06-14T06:42:47;149.52;;;83.70;;
29358;SDS011;16347;53.232;6.556;2023-06-14T06:45:18;144.15;;;82.35;;
29358;SDS011;16347;53.232;6.556;2023-06-14T06:47:48;140.35;;;77.95;;
29358;SDS011;16347;53.232;6.556;2023-06-14T06:50:17;135.82;;;74.90;;
29358;SDS011;16347;53.232;6.556;2023-06-14T06:52:46;121.13;;;67.80;;
29358;SDS011;16347;53.232;6.556;2023-06-14T06:55:14;107.40;;;58.50;;
29358;SDS011;16347;53.232;6.556;2023-06-14T06:57:44;94.32;;;53.20;;
29358;SDS011;16347;53.232;6.556;2023-06-14T07:00:12;83.13;;;47.28;;
29358;SDS011;16347;53.232;6.556;2023-06-14T07:02:41;77.13;;;43.47;;
29358;SDS011;16347;53.232;6.556;2023-06-14T07:05:10;71.82;;;38.95;;
29358;SDS011;16347;53.232;6.556;2023-06-14T07:07:38;62.00;;;34.35;;
29358;SDS011;16347;53.232;6.556;2023-06-14T07:10:12;51.95;;;29.75;;
29358;SDS011;16347;53.232;6.556;2023-06-14T07:12:40;48.60;;;28.35;;
29358;SDS011;16347;53.232;6.556;2023-06-14T07:15:10;43.65;;;25.33;;
29358;SDS011;16347;53.232;6.556;2023-06-14T07:17:43;39.55;;;21.63;;
29358;SDS011;16347;53.232;6.556;2023-06-14T07:20:12;31.65;;;18.02;;
29358;SDS011;16347;53.232;6.556;2023-06-14T07:22:42;29.58;;;14.85;;
29358;SDS011;16347;53.232;6.556;2023-06-14T07:25:11;23.13;;;13.75;;
29358;SDS011;16347;53.232;6.556;2023-06-14T07:27:42;21.67;;;12.45;;
29358;SDS011;16347;53.232;6.556;2023-06-14T07:30:12;21.00;;;11.35;;
29358;SDS011;16347;53.232;6.556;2023-06-14T07:32:40;21.67;;;11.43;;
29358;SDS011;16347;53.232;6.556;2023-06-14T07:35:09;17.40;;;9.93;;
29358;SDS011;16347;53.232;6.556;2023-06-14T07:37:37;13.82;;;8.48;;
29358;SDS011;16347;53.232;6.556;2023-06-14T07:40:06;12.38;;;7.43;;
29358;SDS011;16347;53.232;6.556;2023-06-14T07:42:41;11.15;;;7.18;;
29358;SDS011;16347;53.232;6.556;2023-06-14T07:45:13;14.63;;;7.10;;
29358;SDS011;16347;53.232;6.556;2023-06-14T07:47:42;9.30;;;6.43;;
29358;SDS011;16347;53.232;6.556;2023-06-14T07:50:11;11.57;;;5.82;;
29358;SDS011;16347;53.232;6.556;2023-06-14T07:52:40;5.90;;;4.18;;
29358;SDS011;16347;53.232;6.556;2023-06-14T07:55:08;9.18;;;4.50;;
29358;SDS011;16347;53.232;6.556;2023-06-14T07:57:36;9.25;;;4.35;;
29358;SDS011;16347;53.232;6.556;2023-06-14T08:00:04;7.18;;;3.83;;
29358;SDS011;16347;53.232;6.556;2023-06-14T08:02:41;6.60;;;3.85;;
29358;SDS011;16347;53.232;6.556;2023-06-14T08:05:09;7.25;;;3.50;;
29358;SDS011;16347;53.232;6.556;2023-06-14T08:07:37;6.28;;;3.15;;
29358;SDS011;16347;53.232;6.556;2023-06-14T08:10:05;7.70;;;3.75;;
29358;SDS011;16347;53.232;6.556;2023-06-14T08:12:35;7.85;;;3.35;;
29358;SDS011;16347;53.232;6.556;2023-06-14T08:15:04;4.80;;;3.13;;
29358;SDS011;16347;53.232;6.556;2023-06-14T08:17:41;8.30;;;2.80;;
29358;SDS011;16347;53.232;6.556;2023-06-14T08:20:10;4.43;;;2.90;;
29358;SDS011;16347;53.232;6.556;2023-06-14T08:22:40;4.72;;;2.50;;
29358;SDS011;16347;53.232;6.556;2023-06-14T08:25:08;3.47;;;2.10;;
29358;SDS011;16347;53.232;6.556;2023-06-14T08:27:37;6.60;;;2.90;;
29358;SDS011;16347;53.232;6.556;2023-06-14T08:30:06;3.53;;;2.20;;
29358;SDS011;16347;53.232;6.556;2023-06-14T08:32:35;5.65;;;2.35;;
29358;SDS011;16347;53.232;6.556;2023-06-14T08:35:05;4.53;;;2.30;;
29358;SDS011;16347;53.232;6.556;2023-06-14T08:37:37;4.10;;;2.28;;
29358;SDS011;16347;53.232;6.556;2023-06-14T08:40:17;6.18;;;2.58;;
29358;SDS011;16347;53.232;6.556;2023-06-14T08:42:48;3.45;;;2.28;;
29358;SDS011;16347;53.232;6.556;2023-06-14T08:45:19;3.08;;;1.80;;
29358;SDS011;16347;53.232;6.556;2023-06-14T08:47:51;3.83;;;2.33;;
29358;SDS011;16347;53.232;6.556;2023-06-14T08:50:26;5.07;;;2.20;;
29358;SDS011;16347;53.232;6.556;2023-06-14T08:52:58;6.05;;;2.45;;
29358;SDS011;16347;53.232;6.556;2023-06-14T08:55:29;5.70;;;2.20;;
29358;SDS011;16347;53.232;6.556;2023-06-14T08:58:03;4.45;;;2.15;;
29358;SDS011;16347;53.232;6.556;2023-06-14T09:00:32;7.03;;;2.30;;
29358;SDS011;16347;53.232;6.556;2023-06-14T09:03:01;4.47;;;2.88;;
29358;SDS011;16347;53.232;6.556;2023-06-14T09:05:31;5.47;;;2.83;;
29358;SDS011;16347;53.232;6.556;2023-06-14T09:07:59;5.97;;;3.22;;
29358;SDS011;16347;53.232;6.556;2023-06-14T09:10:32;7.93;;;2.70;;
29358;SDS011;16347;53.232;6.556;2023-06-14T09:13:01;6.88;;;3.47;;
29358;SDS011;16347;53.232;6.556;2023-06-14T09:15:30;4.57;;;2.60;;
29358;SDS011;16347;53.232;6.556;2023-06-14T09:17:59;4.38;;;2.50;;
29358;SDS011;16347;53.232;6.556;2023-06-14T09:20:29;7.15;;;3.03;;
29358;SDS011;16347;53.232;6.556;2023-06-14T09:23:00;7.68;;;2.70;;
29358;SDS011;16347;53.232;6.556;2023-06-14T09:25:28;3.17;;;2.13;;
29358;SDS011;16347;53.232;6.556;2023-06-14T09:28:06;6.70;;;2.70;;
29358;SDS011;16347;53.232;6.556;2023-06-14T09:30:37;4.03;;;2.50;;
29358;SDS011;16347;53.232;6.556;2023-06-14T09:33:05;5.20;;;2.45;;
29358;SDS011;16347;53.232;6.556;2023-06-14T09:35:34;3.60;;;2.60;;
29358;SDS011;16347;53.232;6.556;2023-06-14T09:38:04;3.20;;;2.08;;
29358;SDS011;16347;53.232;6.556;2023-06-14T09:40:33;8.55;;;2.42;;
29358;SDS011;16347;53.232;6.556;2023-06-14T09:43:05;5.85;;;2.05;;
29358;SDS011;16347;53.232;6.556;2023-06-14T09:45:35;7.35;;;2.03;;
29358;SDS011;16347;53.232;6.556;2023-06-14T09:48:06;4.75;;;2.63;;
29358;SDS011;16347;53.232;6.556;2023-06-14T09:50:35;4.35;;;2.13;;
29358;SDS011;16347;53.232;6.556;2023-06-14T09:53:05;6.78;;;2.20;;
29358;SDS011;16347;53.232;6.556;2023-06-14T09:55:34;9.40;;;2.85;;
29358;SDS011;16347;53.232;6.556;2023-06-14T09:58:04;7.13;;;2.00;;
29358;SDS011;16347;53.232;6.556;2023-06-14T10:00:34;7.38;;;2.28;;
29358;SDS011;16347;53.232;6.556;2023-06-14T10:03:06;3.53;;;1.85;;
29358;SDS011;16347;53.232;6.556;2023-06-14T10:05:40;5.05;;;2.55;;
29358;SDS011;16347;53.232;6.556;2023-06-14T10:08:14;9.18;;;1.95;;
29358;SDS011;16347;53.232;6.556;2023-06-14T10:10:44;3.88;;;2.38;;
29358;SDS011;16347;53.232;6.556;2023-06-14T10:13:13;4.20;;;1.90;;
29358;SDS011;16347;53.232;6.556;2023-06-14T10:15:51;5.45;;;2.00;;
29358;SDS011;16347;53.232;6.556;2023-06-14T10:18:29;3.35;;;1.90;;
29358;SDS011;16347;53.232;6.556;2023-06-14T10:21:03;6.32;;;2.10;;
29358;SDS011;16347;53.232;6.556;2023-06-14T10:23:38;8.73;;;2.00;;
29358;SDS011;16347;53.232;6.556;2023-06-14T10:26:13;5.50;;;1.80;;
29358;SDS011;16347;53.232;6.556;2023-06-14T10:28:57;5.55;;;2.40;;
29358;SDS011;16347;53.232;6.556;2023-06-14T10:31:41;4.60;;;2.15;;
29358;SDS011;16347;53.232;6.556;2023-06-14T10:34:10;5.43;;;2.50;;
29358;SDS011;16347;53.232;6.556;2023-06-14T10:36:40;8.20;;;2.40;;
29358;SDS011;16347;53.232;6.556;2023-06-14T10:39:12;9.48;;;2.22;;
29358;SDS011;16347;53.232;6.556;2023-06-14T10:44:33;4.05;;;2.35;;
29358;SDS011;16347;53.232;6.556;2023-06-14T10:50:02;4.35;;;2.35;;
29358;SDS011;16347;53.232;6.556;2023-06-14T10:52:33;6.00;;;2.45;;
29358;SDS011;16347;53.232;6.556;2023-06-14T10:55:04;9.07;;;2.65;;
29358;SDS011;16347;53.232;6.556;2023-06-14T10:57:38;3.60;;;1.90;;
29358;SDS011;16347;53.232;6.556;2023-06-14T11:00:18;5.20;;;2.20;;
29358;SDS011;16347;53.232;6.556;2023-06-14T11:05:54;3.85;;;1.92;;
29358;SDS011;16347;53.232;6.556;2023-06-14T11:11:41;4.18;;;1.73;;
29358;SDS011;16347;53.232;6.556;2023-06-14T11:14:10;7.43;;;2.00;;
29358;SDS011;16347;53.232;6.556;2023-06-14T11:16:39;7.03;;;1.90;;
29358;SDS011;16347;53.232;6.556;2023-06-14T11:19:07;4.10;;;2.00;;
29358;SDS011;16347;53.232;6.556;2023-06-14T11:21:39;6.53;;;2.10;;
29358;SDS011;16347;53.232;6.556;2023-06-14T11:24:09;7.10;;;2.60;;
29358;SDS011;16347;53.232;6.556;2023-06-14T11:26:38;7.43;;;3.55;;
29358;SDS011;16347;53.232;6.556;2023-06-14T11:29:08;7.20;;;2.78;;
29358;SDS011;16347;53.232;6.556;2023-06-14T11:31:35;6.70;;;2.80;;
29358;SDS011;16347;53.232;6.556;2023-06-14T11:34:04;13.15;;;3.30;;
29358;SDS011;16347;53.232;6.556;2023-06-14T11:36:33;6.22;;;2.67;;
29358;SDS011;16347;53.232;6.556;2023-06-14T11:39:02;4.55;;;2.17;;
29358;SDS011;16347;53.232;6.556;2023-06-14T11:41:34;10.73;;;2.78;;
29358;SDS011;16347;53.232;6.556;2023-06-14T11:44:05;7.90;;;2.78;;
29358;SDS011;16347;53.232;6.556;2023-06-14T11:46:34;7.47;;;2.40;;
29358;SDS011;16347;53.232;6.556;2023-06-14T11:49:02;3.95;;;2.10;;
29358;SDS011;16347;53.232;6.556;2023-06-14T11:51:31;15.05;;;2.80;;
29358;SDS011;16347;53.232;6.556;2023-06-14T11:54:00;13.32;;;3.25;;
29358;SDS011;16347;53.232;6.556;2023-06-14T11:56:29;8.80;;;2.20;;
29358;SDS011;16347;53.232;6.556;2023-06-14T11:58:58;10.23;;;2.40;;
29358;SDS011;16347;53.232;6.556;2023-06-14T12:01:29;8.88;;;2.20;;
29358;SDS011;16347;53.232;6.556;2023-06-14T12:03:59;3.88;;;2.03;;
29358;SDS011;16347;53.232;6.556;2023-06-14T12:06:27;7.93;;;1.75;;
29358;SDS011;16347;53.232;6.556;2023-06-14T12:09:00;5.40;;;1.75;;
29358;SDS011;16347;53.232;6.556;2023-06-14T12:11:34;3.28;;;1.70;;
29358;SDS011;16347;53.232;6.556;2023-06-14T12:14:03;4.25;;;1.73;;
29358;SDS011;16347;53.232;6.556;2023-06-14T12:16:34;5.07;;;1.50;;
29358;SDS011;16347;53.232;6.556;2023-06-14T12:19:09;4.80;;;1.50;;
29358;SDS011;16347;53.232;6.556;2023-06-14T12:21:40;2.13;;;1.45;;
29358;SDS011;16347;53.232;6.556;2023-06-14T12:24:09;4.43;;;1.90;;
29358;SDS011;16347;53.232;6.556;2023-06-14T12:26:40;12.02;;;2.08;;
29358;SDS011;16347;53.232;6.556;2023-06-14T12:29:09;3.83;;;1.35;;
29358;SDS011;16347;53.232;6.556;2023-06-14T12:31:40;4.25;;;1.67;;
29358;SDS011;16347;53.232;6.556;2023-06-14T12:34:11;2.95;;;1.42;;
29358;SDS011;16347;53.232;6.556;2023-06-14T12:36:52;2.38;;;1.15;;
29358;SDS011;16347;53.232;6.556;2023-06-14T12:39:27;3.30;;;1.30;;
29358;SDS011;16347;53.232;6.556;2023-06-14T12:41:56;5.82;;;1.60;;
29358;SDS011;16347;53.232;6.556;2023-06-14T12:44:24;1.80;;;1.20;;
29358;SDS011;16347;53.232;6.556;2023-06-14T12:46:54;1.73;;;1.40;;
29358;SDS011;16347;53.232;6.556;2023-06-14T12:49:22;4.53;;;1.65;;
29358;SDS011;16347;53.232;6.556;2023-06-14T12:51:50;4.22;;;1.27;;
29358;SDS011;16347;53.232;6.556;2023-06-14T12:54:18;1.35;;;1.25;;
29358;SDS011;16347;53.232;6.556;2023-06-14T12:57:04;8.52;;;1.48;;
29358;SDS011;16347;53.232;6.556;2023-06-14T12:59:32;1.98;;;1.40;;
29358;SDS011;16347;53.232;6.556;2023-06-14T13:02:13;3.85;;;1.60;;
29358;SDS011;16347;53.232;6.556;2023-06-14T13:04:43;8.00;;;1.80;;
29358;SDS011;16347;53.232;6.556;2023-06-14T13:07:11;2.33;;;1.50;;
29358;SDS011;16347;53.232;6.556;2023-06-14T13:09:41;3.67;;;1.50;;
29358;SDS011;16347;53.232;6.556;2023-06-14T13:12:09;4.78;;;1.77;;
29358;SDS011;16347;53.232;6.556;2023-06-14T13:14:39;2.35;;;1.33;;
29358;SDS011;16347;53.232;6.556;2023-06-14T13:17:08;8.27;;;2.00;;
29358;SDS011;16347;53.232;6.556;2023-06-14T13:19:38;5.28;;;1.65;;
29358;SDS011;16347;53.232;6.556;2023-06-14T13:22:06;17.13;;;2.72;;
29358;SDS011;16347;53.232;6.556;2023-06-14T13:24:35;9.15;;;1.63;;
29358;SDS011;16347;53.232;6.556;2023-06-14T13:27:03;11.02;;;1.90;;
29358;SDS011;16347;53.232;6.556;2023-06-14T13:29:31;8.43;;;3.13;;
29358;SDS011;16347;53.232;6.556;2023-06-14T13:32:02;6.10;;;1.83;;
29358;SDS011;16347;53.232;6.556;2023-06-14T13:34:32;7.57;;;1.63;;
29358;SDS011;16347;53.232;6.556;2023-06-14T13:37:01;5.57;;;1.42;;
29358;SDS011;16347;53.232;6.556;2023-06-14T13:39:29;7.07;;;1.80;;
29358;SDS011;16347;53.232;6.556;2023-06-14T13:41:57;5.40;;;2.38;;
29358;SDS011;16347;53.232;6.556;2023-06-14T13:44:25;4.85;;;2.05;;
29358;SDS011;16347;53.232;6.556;2023-06-14T13:46:53;4.55;;;2.03;;
29358;SDS011;16347;53.232;6.556;2023-06-14T13:49:21;5.18;;;2.00;;
29358;SDS011;16347;53.232;6.556;2023-06-14T13:51:49;4.38;;;2.67;;
29358;SDS011;16347;53.232;6.556;2023-06-14T13:54:20;8.57;;;2.55;;
29358;SDS011;16347;53.232;6.556;2023-06-14T13:56:48;6.20;;;1.70;;
29358;SDS011;16347;53.232;6.556;2023-06-14T13:59:17;2.92;;;1.88;;
29358;SDS011;16347;53.232;6.556;2023-06-14T14:01:44;5.60;;;2.17;;
29358;SDS011;16347;53.232;6.556;2023-06-14T14:04:13;3.15;;;2.17;;
29358;SDS011;16347;53.232;6.556;2023-06-14T14:06:41;5.68;;;1.80;;
29358;SDS011;16347;53.232;6.556;2023-06-14T14:09:09;2.78;;;2.00;;
29358;SDS011;16347;53.232;6.556;2023-06-14T14:11:39;4.72;;;1.98;;
29358;SDS011;16347;53.232;6.556;2023-06-14T14:14:09;2.63;;;1.70;;
29358;SDS011;16347;53.232;6.556;2023-06-14T14:16:40;2.58;;;1.70;;
29358;SDS011;16347;53.232;6.556;2023-06-14T14:19:15;4.30;;;1.85;;
29358;SDS011;16347;53.232;6.556;2023-06-14T14:21:47;6.63;;;1.75;;
29358;SDS011;16347;53.232;6.556;2023-06-14T14:24:18;3.55;;;2.00;;
29358;SDS011;16347;53.232;6.556;2023-06-14T14:26:50;2.30;;;1.52;;
29358;SDS011;16347;53.232;6.556;2023-06-14T14:29:21;3.83;;;1.65;;
29358;SDS011;16347;53.232;6.556;2023-06-14T14:31:53;3.42;;;1.60;;
29358;SDS011;16347;53.232;6.556;2023-06-14T14:34:21;4.28;;;2.00;;
29358;SDS011;16347;53.232;6.556;2023-06-14T14:36:50;3.13;;;1.90;;
29358;SDS011;16347;53.232;6.556;2023-06-14T14:39:19;3.70;;;1.35;;
29358;SDS011;16347;53.232;6.556;2023-06-14T14:41:49;3.08;;;1.70;;
29358;SDS011;16347;53.232;6.556;2023-06-14T14:44:18;3.75;;;1.58;;
29358;SDS011;16347;53.232;6.556;2023-06-14T14:46:50;1.45;;;1.35;;
29358;SDS011;16347;53.232;6.556;2023-06-14T14:49:18;2.90;;;1.65;;
29358;SDS011;16347;53.232;6.556;2023-06-14T14:51:47;2.88;;;1.77;;
29358;SDS011;16347;53.232;6.556;2023-06-14T14:54:15;3.40;;;1.80;;
29358;SDS011;16347;53.232;6.556;2023-06-14T14:56:43;3.53;;;1.80;;
29358;SDS011;16347;53.232;6.556;2023-06-14T14:59:13;4.45;;;1.85;;
29358;SDS011;16347;53.232;6.556;2023-06-14T15:01:42;2.70;;;1.70;;
29358;SDS011;16347;53.232;6.556;2023-06-14T15:04:13;2.40;;;1.60;;
29358;SDS011;16347;53.232;6.556;2023-06-14T15:06:41;16.20;;;2.80;;
29358;SDS011;16347;53.232;6.556;2023-06-14T15:09:13;3.58;;;2.20;;
29358;SDS011;16347;53.232;6.556;2023-06-14T15:11:41;3.60;;;1.90;;